sensor_id;sensor_type;location;lat;lon;timestamp;pressure;altitude;pressure_sealevel;temperature
24714;BMP280;12820;51.580;5.010;2023-07-31T00:04:04;101026.91;;;19.34
24714;BMP280;12820;51.580;5.010;2023-07-31T00:09:06;101028.56;;;19.35
24714;BMP280;12820;51.580;5.010;2023-07-31T00:14:08;101015.75;;;19.37
24714;BMP280;12820;51.580;5.010;2023-07-31T00:19:10;101016.56;;;19.37
24714;BMP280;12820;51.580;5.010;2023-07-31T00:24:12;101013.13;;;19.38
24714;BMP280;12820;51.580;5.010;2023-07-31T00:29:14;101001.22;;;19.39
24714;BMP280;12820;51.580;5.010;2023-07-31T00:34:17;101010.59;;;19.38
24714;BMP280;12820;51.580;5.010;2023-07-31T00:39:19;101014.78;;;19.39
24714;BMP280;12820;51.580;5.010;2023-07-31T00:44:21;101010.53;;;19.39
24714;BMP280;12820;51.580;5.010;2023-07-31T00:49:23;101002.09;;;19.38
24714;BMP280;12820;51.580;5.010;2023-07-31T00:54:25;100991.91;;;19.38
24714;BMP280;12820;51.580;5.010;2023-07-31T00:59:28;100988.47;;;19.39
24714;BMP280;12820;51.580;5.010;2023-07-31T01:04:30;101000.38;;;19.38
24714;BMP280;12820;51.580;5.010;2023-07-31T01:09:43;100991.09;;;19.37
24714;BMP280;12820;51.580;5.010;2023-07-31T01:15:22;100988.38;;;19.40
24714;BMP280;12820;51.580;5.010;2023-07-31T01:20:26;100985.81;;;19.40
24714;BMP280;12820;51.580;5.010;2023-07-31T01:30:49;100994.47;;;19.38
24714;BMP280;12820;51.580;5.010;2023-07-31T01:35:52;100993.69;;;19.36
24714;BMP280;12820;51.580;5.010;2023-07-31T01:40:55;100992.81;;;19.37
24714;BMP280;12820;51.580;5.010;2023-07-31T01:46:00;100995.34;;;19.37
24714;BMP280;12820;51.580;5.010;2023-07-31T01:51:02;100971.69;;;19.35
24714;BMP280;12820;51.580;5.010;2023-07-31T01:56:05;100970.00;;;19.34
24714;BMP280;12820;51.580;5.010;2023-07-31T02:01:08;100962.44;;;19.32
24714;BMP280;12820;51.580;5.010;2023-07-31T02:06:10;100954.94;;;19.29
24714;BMP280;12820;51.580;5.010;2023-07-31T02:11:12;100960.94;;;19.28
24714;BMP280;12820;51.580;5.010;2023-07-31T02:16:15;100938.06;;;19.27
24714;BMP280;12820;51.580;5.010;2023-07-31T02:21:17;100945.78;;;19.25
24714;BMP280;12820;51.580;5.010;2023-07-31T02:26:19;100935.72;;;19.22
24714;BMP280;12820;51.580;5.010;2023-07-31T02:31:21;100937.53;;;19.21
24714;BMP280;12820;51.580;5.010;2023-07-31T02:36:24;100935.06;;;19.19
24714;BMP280;12820;51.580;5.010;2023-07-31T02:41:26;100929.97;;;19.19
24714;BMP280;12820;51.580;5.010;2023-07-31T02:46:28;100927.47;;;19.18
24714;BMP280;12820;51.580;5.010;2023-07-31T02:51:31;100922.44;;;19.16
24714;BMP280;12820;51.580;5.010;2023-07-31T02:56:33;100923.25;;;19.17
24714;BMP280;12820;51.580;5.010;2023-07-31T03:01:35;100923.34;;;19.15
24714;BMP280;12820;51.580;5.010;2023-07-31T03:06:37;100912.34;;;19.15
24714;BMP280;12820;51.580;5.010;2023-07-31T03:11:40;100924.19;;;19.16
24714;BMP280;12820;51.580;5.010;2023-07-31T03:16:43;100905.59;;;19.14
24714;BMP280;12820;51.580;5.010;2023-07-31T03:21:45;100900.50;;;19.14
24714;BMP280;12820;51.580;5.010;2023-07-31T03:26:47;100900.50;;;19.14
24714;BMP280;12820;51.580;5.010;2023-07-31T03:31:50;100890.28;;;19.14
24714;BMP280;12820;51.580;5.010;2023-07-31T03:36:52;100896.16;;;19.16
24714;BMP280;12820;51.580;5.010;2023-07-31T03:41:54;100889.31;;;19.16
24714;BMP280;12820;51.580;5.010;2023-07-31T03:46:56;100879.13;;;19.16
24714;BMP280;12820;51.580;5.010;2023-07-31T03:51:59;100876.50;;;19.18
24714;BMP280;12820;51.580;5.010;2023-07-31T03:57:01;100871.41;;;19.18
24714;BMP280;12820;51.580;5.010;2023-07-31T04:02:03;100863.75;;;19.18
24714;BMP280;12820;51.580;5.010;2023-07-31T04:07:05;100869.75;;;19.17
24714;BMP280;12820;51.580;5.010;2023-07-31T04:12:08;100865.41;;;19.19
24714;BMP280;12820;51.580;5.010;2023-07-31T04:17:10;100860.31;;;19.19
24714;BMP280;12820;51.580;5.010;2023-07-31T04:22:13;100854.41;;;19.18
24714;BMP280;12820;51.580;5.010;2023-07-31T04:27:15;100853.63;;;19.16
24714;BMP280;12820;51.580;5.010;2023-07-31T04:32:17;100841.06;;;19.13
24714;BMP280;12820;51.580;5.010;2023-07-31T04:37:21;100830.19;;;19.10
24714;BMP280;12820;51.580;5.010;2023-07-31T04:42:23;100820.97;;;19.07
24714;BMP280;12820;51.580;5.010;2023-07-31T04:47:25;100821.78;;;19.08
24714;BMP280;12820;51.580;5.010;2023-07-31T04:52:27;100812.50;;;19.07
24714;BMP280;12820;51.580;5.010;2023-07-31T04:57:30;100809.94;;;19.07
24714;BMP280;12820;51.580;5.010;2023-07-31T05:02:32;100804.13;;;19.05
24714;BMP280;12820;51.580;5.010;2023-07-31T05:07:34;100795.72;;;19.03
24714;BMP280;12820;51.580;5.010;2023-07-31T05:12:36;100811.00;;;19.03
24714;BMP280;12820;51.580;5.010;2023-07-31T05:17:38;100798.34;;;19.02
24714;BMP280;12820;51.580;5.010;2023-07-31T05:22:41;100793.25;;;19.02
24714;BMP280;12820;51.580;5.010;2023-07-31T05:27:43;100795.72;;;19.03
24714;BMP280;12820;51.580;5.010;2023-07-31T05:32:45;100791.44;;;19.03
24714;BMP280;12820;51.580;5.010;2023-07-31T05:37:47;100784.78;;;19.01
24714;BMP280;12820;51.580;5.010;2023-07-31T05:42:49;100775.31;;;19.03
24714;BMP280;12820;51.580;5.010;2023-07-31T05:47:51;100778.03;;;19.00
24714;BMP280;12820;51.580;5.010;2023-07-31T05:52:54;100768.72;;;18.99
24714;BMP280;12820;51.580;5.010;2023-07-31T05:57:56;100769.56;;;19.00
24714;BMP280;12820;51.580;5.010;2023-07-31T06:03:01;100758.56;;;18.99
24714;BMP280;12820;51.580;5.010;2023-07-31T06:08:04;100760.13;;;19.02
24714;BMP280;12820;51.580;5.010;2023-07-31T06:13:06;100751.50;;;19.04
24714;BMP280;12820;51.580;5.010;2023-07-31T06:18:08;100754.66;;;19.09
24714;BMP280;12820;51.580;5.010;2023-07-31T06:23:11;100761.41;;;19.10
24714;BMP280;12820;51.580;5.010;2023-07-31T06:28:13;100750.09;;;19.15
24714;BMP280;12820;51.580;5.010;2023-07-31T06:33:16;100746.31;;;19.22
24714;BMP280;12820;51.580;5.010;2023-07-31T06:38:22;100738.38;;;19.28
24714;BMP280;12820;51.580;5.010;2023-07-31T06:43:24;100737.97;;;19.35
24714;BMP280;12820;51.580;5.010;2023-07-31T06:48:30;100723.38;;;19.39
24714;BMP280;12820;51.580;5.010;2023-07-31T06:53:32;100732.44;;;19.44
24714;BMP280;12820;51.580;5.010;2023-07-31T06:58:34;100720.13;;;19.52
24714;BMP280;12820;51.580;5.010;2023-07-31T07:03:36;100718.78;;;19.61
24714;BMP280;12820;51.580;5.010;2023-07-31T07:08:39;100712.38;;;19.70
24714;BMP280;12820;51.580;5.010;2023-07-31T07:13:41;100714.59;;;19.75
24714;BMP280;12820;51.580;5.010;2023-07-31T07:18:43;100706.88;;;19.77
24714;BMP280;12820;51.580;5.010;2023-07-31T07:24:03;100704.91;;;19.82
24714;BMP280;12820;51.580;5.010;2023-07-31T07:29:06;100713.72;;;19.92
24714;BMP280;12820;51.580;5.010;2023-07-31T07:34:09;100705.72;;;19.97
24714;BMP280;12820;51.580;5.010;2023-07-31T07:39:11;100708.84;;;20.02
24714;BMP280;12820;51.580;5.010;2023-07-31T07:44:14;100707.88;;;20.05
24714;BMP280;12820;51.580;5.010;2023-07-31T07:49:16;100717.34;;;20.03
24714;BMP280;12820;51.580;5.010;2023-07-31T07:54:18;100709.69;;;20.03
24714;BMP280;12820;51.580;5.010;2023-07-31T07:59:22;100711.25;;;20.05
24714;BMP280;12820;51.580;5.010;2023-07-31T08:04:24;100711.25;;;20.05
24714;BMP280;12820;51.580;5.010;2023-07-31T08:09:26;100711.25;;;20.05
24714;BMP280;12820;51.580;5.010;2023-07-31T08:14:28;100706.88;;;20.07
24714;BMP280;12820;51.580;5.010;2023-07-31T08:19:34;100706.38;;;20.16
24714;BMP280;12820;51.580;5.010;2023-07-31T08:24:36;100704.31;;;20.22
24714;BMP280;12820;51.580;5.010;2023-07-31T08:29:39;100704.00;;;20.28
24714;BMP280;12820;51.580;5.010;2023-07-31T08:34:41;100709.63;;;20.34
24714;BMP280;12820;51.580;5.010;2023-07-31T08:39:43;100702.38;;;20.42
24714;BMP280;12820;51.580;5.010;2023-07-31T08:44:46;100701.13;;;20.49
24714;BMP280;12820;51.580;5.010;2023-07-31T08:49:51;100695.25;;;20.62
24714;BMP280;12820;51.580;5.010;2023-07-31T08:54:54;100685.28;;;20.86
24714;BMP280;12820;51.580;5.010;2023-07-31T08:59:57;100698.81;;;21.02
24714;BMP280;12820;51.580;5.010;2023-07-31T09:05:00;100680.63;;;21.06
24714;BMP280;12820;51.580;5.010;2023-07-31T09:10:04;100683.31;;;21.05
24714;BMP280;12820;51.580;5.010;2023-07-31T09:15:06;100686.06;;;21.16
24714;BMP280;12820;51.580;5.010;2023-07-31T09:20:16;100668.47;;;21.38
24714;BMP280;12820;51.580;5.010;2023-07-31T09:25:20;100676.78;;;21.55
24714;BMP280;12820;51.580;5.010;2023-07-31T09:30:23;100668.47;;;21.66
24714;BMP280;12820;51.580;5.010;2023-07-31T09:35:31;100670.78;;;21.82
24714;BMP280;12820;51.580;5.010;2023-07-31T09:40:38;100670.09;;;21.94
24714;BMP280;12820;51.580;5.010;2023-07-31T09:45:41;100660.09;;;22.03
24714;BMP280;12820;51.580;5.010;2023-07-31T09:50:46;100659.59;;;22.10
24714;BMP280;12820;51.580;5.010;2023-07-31T09:55:48;100651.00;;;22.11
24714;BMP280;12820;51.580;5.010;2023-07-31T10:00:50;100652.59;;;22.26
24714;BMP280;12820;51.580;5.010;2023-07-31T10:05:55;100651.41;;;22.43
24714;BMP280;12820;51.580;5.010;2023-07-31T10:10:59;100647.72;;;22.61
24714;BMP280;12820;51.580;5.010;2023-07-31T10:16:03;100645.28;;;22.84
24714;BMP280;12820;51.580;5.010;2023-07-31T10:21:05;100647.97;;;23.19
24714;BMP280;12820;51.580;5.010;2023-07-31T10:26:08;100638.53;;;23.44
24714;BMP280;12820;51.580;5.010;2023-07-31T10:31:10;100647.88;;;23.45
24714;BMP280;12820;51.580;5.010;2023-07-31T10:36:18;100648.72;;;23.33
24714;BMP280;12820;51.580;5.010;2023-07-31T10:41:28;100657.09;;;23.35
24714;BMP280;12820;51.580;5.010;2023-07-31T10:46:30;100652.16;;;23.56
24714;BMP280;12820;51.580;5.010;2023-07-31T10:51:34;100639.78;;;23.86
24714;BMP280;12820;51.580;5.010;2023-07-31T10:56:39;100633.69;;;24.22
24714;BMP280;12820;51.580;5.010;2023-07-31T11:01:52;100637.44;;;24.51
24714;BMP280;12820;51.580;5.010;2023-07-31T11:06:59;100630.31;;;24.55
24714;BMP280;12820;51.580;5.010;2023-07-31T11:12:02;100640.84;;;24.29
24714;BMP280;12820;51.580;5.010;2023-07-31T11:17:07;100631.66;;;24.14
24714;BMP280;12820;51.580;5.010;2023-07-31T11:22:10;100623.66;;;24.19
24714;BMP280;12820;51.580;5.010;2023-07-31T11:27:12;100614.41;;;24.16
24714;BMP280;12820;51.580;5.010;2023-07-31T11:32:17;100632.66;;;24.01
24714;BMP280;12820;51.580;5.010;2023-07-31T11:37:20;100616.59;;;23.75
24714;BMP280;12820;51.580;5.010;2023-07-31T11:42:22;100614.81;;;23.52
24714;BMP280;12820;51.580;5.010;2023-07-31T11:47:25;100612.00;;;23.33
24714;BMP280;12820;51.580;5.010;2023-07-31T11:52:30;100603.66;;;23.29
24714;BMP280;12820;51.580;5.010;2023-07-31T11:57:33;100609.09;;;23.25
24714;BMP280;12820;51.580;5.010;2023-07-31T12:02:36;100603.66;;;23.29
24714;BMP280;12820;51.580;5.010;2023-07-31T12:07:45;100607.88;;;23.30
24714;BMP280;12820;51.580;5.010;2023-07-31T12:12:59;100598.84;;;23.25
24714;BMP280;12820;51.580;5.010;2023-07-31T12:18:05;100590.75;;;23.18
24714;BMP280;12820;51.580;5.010;2023-07-31T12:23:20;100588.06;;;23.08
24714;BMP280;12820;51.580;5.010;2023-07-31T12:28:44;100589.41;;;23.01
24714;BMP280;12820;51.580;5.010;2023-07-31T12:33:49;100575.06;;;22.98
24714;BMP280;12820;51.580;5.010;2023-07-31T12:38:52;100571.13;;;23.05
24714;BMP280;12820;51.580;5.010;2023-07-31T12:43:54;100559.25;;;23.16
24714;BMP280;12820;51.580;5.010;2023-07-31T12:48:57;100560.06;;;23.17
24714;BMP280;12820;51.580;5.010;2023-07-31T12:53:59;100564.91;;;23.09
24714;BMP280;12820;51.580;5.010;2023-07-31T12:59:01;100565.03;;;22.96
24714;BMP280;12820;51.580;5.010;2023-07-31T13:04:03;100560.72;;;22.84
24714;BMP280;12820;51.580;5.010;2023-07-31T13:09:06;100559.38;;;22.79
24714;BMP280;12820;51.580;5.010;2023-07-31T13:14:08;100545.13;;;22.75
24714;BMP280;12820;51.580;5.010;2023-07-31T13:19:10;100535.91;;;22.72
24714;BMP280;12820;51.580;5.010;2023-07-31T13:24:12;100539.78;;;22.78
24714;BMP280;12820;51.580;5.010;2023-07-31T13:29:15;100532.63;;;22.82
24714;BMP280;12820;51.580;5.010;2023-07-31T13:34:17;100532.53;;;22.84
24714;BMP280;12820;51.580;5.010;2023-07-31T13:39:19;100527.50;;;22.82
24714;BMP280;12820;51.580;5.010;2023-07-31T13:44:21;100529.97;;;22.84
24714;BMP280;12820;51.580;5.010;2023-07-31T13:49:23;100518.47;;;22.89
24714;BMP280;12820;51.580;5.010;2023-07-31T13:54:25;100535.50;;;22.90
24714;BMP280;12820;51.580;5.010;2023-07-31T13:59:32;100540.22;;;22.84
24714;BMP280;12820;51.580;5.010;2023-07-31T14:04:34;100518.06;;;22.83
24714;BMP280;12820;51.580;5.010;2023-07-31T14:09:36;100519.63;;;22.85
24714;BMP280;12820;51.580;5.010;2023-07-31T14:14:38;100512.53;;;22.89
24714;BMP280;12820;51.580;5.010;2023-07-31T14:19:40;100516.84;;;22.88
24714;BMP280;12820;51.580;5.010;2023-07-31T14:24:43;100512.13;;;22.82
24714;BMP280;12820;51.580;5.010;2023-07-31T14:29:45;100482.59;;;22.77
24714;BMP280;12820;51.580;5.010;2023-07-31T14:34:47;100494.09;;;22.84
24714;BMP280;12820;51.580;5.010;2023-07-31T14:39:50;100485.16;;;22.77
24714;BMP280;12820;51.580;5.010;2023-07-31T14:44:53;100475.66;;;22.67
24714;BMP280;12820;51.580;5.010;2023-07-31T14:49:55;100476.59;;;22.66
24714;BMP280;12820;51.580;5.010;2023-07-31T14:54:58;100463.03;;;22.64
24714;BMP280;12820;51.580;5.010;2023-07-31T15:00:00;100460.19;;;22.56
24714;BMP280;12820;51.580;5.010;2023-07-31T15:05:04;100455.84;;;22.44
24714;BMP280;12820;51.580;5.010;2023-07-31T15:10:07;100446.53;;;22.31
24714;BMP280;12820;51.580;5.010;2023-07-31T15:15:09;100440.69;;;22.17
24714;BMP280;12820;51.580;5.010;2023-07-31T15:20:12;100431.47;;;22.03
24714;BMP280;12820;51.580;5.010;2023-07-31T15:25:14;100425.53;;;21.90
24714;BMP280;12820;51.580;5.010;2023-07-31T15:30:18;100416.34;;;21.74
24714;BMP280;12820;51.580;5.010;2023-07-31T15:35:21;100418.00;;;21.63
24714;BMP280;12820;51.580;5.010;2023-07-31T15:40:23;100406.88;;;21.50
24714;BMP280;12820;51.580;5.010;2023-07-31T15:45:26;100387.03;;;21.41
24714;BMP280;12820;51.580;5.010;2023-07-31T15:50:28;100379.22;;;21.31
24714;BMP280;12820;51.580;5.010;2023-07-31T15:55:30;100362.63;;;21.24
24714;BMP280;12820;51.580;5.010;2023-07-31T16:00:33;100365.59;;;21.18
24714;BMP280;12820;51.580;5.010;2023-07-31T16:05:35;100358.13;;;21.15
24714;BMP280;12820;51.580;5.010;2023-07-31T16:10:37;100347.47;;;21.09
24714;BMP280;12820;51.580;5.010;2023-07-31T16:15:39;100347.47;;;21.09
24714;BMP280;12820;51.580;5.010;2023-07-31T16:20:42;100339.84;;;21.07
24714;BMP280;12820;51.580;5.010;2023-07-31T16:25:44;100343.44;;;21.05
24714;BMP280;12820;51.580;5.010;2023-07-31T16:30:46;100329.84;;;21.04
24714;BMP280;12820;51.580;5.010;2023-07-31T16:35:48;100313.75;;;21.02
24714;BMP280;12820;51.580;5.010;2023-07-31T16:40:50;100303.66;;;21.01
24714;BMP280;12820;51.580;5.010;2023-07-31T16:45:53;100290.97;;;21.00
24714;BMP280;12820;51.580;5.010;2023-07-31T16:50:55;100300.56;;;20.96
24714;BMP280;12820;51.580;5.010;2023-07-31T16:55:57;100281.97;;;20.94
24714;BMP280;12820;51.580;5.010;2023-07-31T17:01:02;100292.25;;;20.93
24714;BMP280;12820;51.580;5.010;2023-07-31T17:06:05;100295.84;;;20.90
24714;BMP280;12820;51.580;5.010;2023-07-31T17:11:07;100285.09;;;20.85
24714;BMP280;12820;51.580;5.010;2023-07-31T17:16:09;100280.09;;;20.84
24714;BMP280;12820;51.580;5.010;2023-07-31T17:21:12;100277.00;;;20.79
24714;BMP280;12820;51.580;5.010;2023-07-31T17:26:14;100271.38;;;20.74
24714;BMP280;12820;51.580;5.010;2023-07-31T17:31:16;100280.06;;;20.72
24714;BMP280;12820;51.580;5.010;2023-07-31T17:36:19;100282.91;;;20.67
24714;BMP280;12820;51.580;5.010;2023-07-31T17:41:21;100271.03;;;20.66
24714;BMP280;12820;51.580;5.010;2023-07-31T17:46:24;100272.84;;;20.64
24714;BMP280;12820;51.580;5.010;2023-07-31T17:51:26;100255.88;;;20.64
24714;BMP280;12820;51.580;5.010;2023-07-31T17:56:28;100245.88;;;20.61
24714;BMP280;12820;51.580;5.010;2023-07-31T18:01:31;100241.59;;;20.61
24714;BMP280;12820;51.580;5.010;2023-07-31T18:06:36;100240.78;;;20.61
24714;BMP280;12820;51.580;5.010;2023-07-31T18:11:39;100239.13;;;20.60
24714;BMP280;12820;51.580;5.010;2023-07-31T18:16:41;100242.78;;;20.56
24714;BMP280;12820;51.580;5.010;2023-07-31T18:21:44;100215.81;;;20.52
24714;BMP280;12820;51.580;5.010;2023-07-31T18:26:46;100233.16;;;20.47
24714;BMP280;12820;51.580;5.010;2023-07-31T18:31:49;100247.94;;;20.42
24714;BMP280;12820;51.580;5.010;2023-07-31T18:36:51;100252.59;;;20.36
24714;BMP280;12820;51.580;5.010;2023-07-31T18:41:54;100265.19;;;20.25
24714;BMP280;12820;51.580;5.010;2023-07-31T18:46:56;100227.38;;;20.18
24714;BMP280;12820;51.580;5.010;2023-07-31T18:51:58;100213.16;;;20.14
24714;BMP280;12820;51.580;5.010;2023-07-31T18:57:00;100207.34;;;20.12
24714;BMP280;12820;51.580;5.010;2023-07-31T19:02:03;100196.41;;;20.10
24714;BMP280;12820;51.580;5.010;2023-07-31T19:07:06;100216.19;;;20.07
24714;BMP280;12820;51.580;5.010;2023-07-31T19:12:08;100198.59;;;20.02
24714;BMP280;12820;51.580;5.010;2023-07-31T19:17:11;100174.28;;;19.97
24714;BMP280;12820;51.580;5.010;2023-07-31T19:22:13;100170.28;;;19.93
24714;BMP280;12820;51.580;5.010;2023-07-31T19:27:16;100162.94;;;19.89
24714;BMP280;12820;51.580;5.010;2023-07-31T19:32:18;100166.59;;;19.85
24714;BMP280;12820;51.580;5.010;2023-07-31T19:37:20;100170.94;;;19.83
24714;BMP280;12820;51.580;5.010;2023-07-31T19:42:22;100162.59;;;19.81
24714;BMP280;12820;51.580;5.010;2023-07-31T19:47:25;100171.34;;;19.77
24714;BMP280;12820;51.580;5.010;2023-07-31T19:52:27;100190.09;;;19.76
24714;BMP280;12820;51.580;5.010;2023-07-31T19:57:29;100176.59;;;19.74
24714;BMP280;12820;51.580;5.010;2023-07-31T20:02:31;100174.16;;;19.73
24714;BMP280;12820;51.580;5.010;2023-07-31T20:07:33;100172.53;;;19.72
24714;BMP280;12820;51.580;5.010;2023-07-31T20:12:35;100157.22;;;19.72
24714;BMP280;12820;51.580;5.010;2023-07-31T20:17:38;100162.31;;;19.72
24714;BMP280;12820;51.580;5.010;2023-07-31T20:22:40;100145.47;;;19.69
24714;BMP280;12820;51.580;5.010;2023-07-31T20:27:43;100135.28;;;19.69
24714;BMP280;12820;51.580;5.010;2023-07-31T20:32:45;100139.66;;;19.67
24714;BMP280;12820;51.580;5.010;2023-07-31T20:37:47;100114.16;;;19.67
24714;BMP280;12820;51.580;5.010;2023-07-31T20:42:57;100114.16;;;19.67
24714;BMP280;12820;51.580;5.010;2023-07-31T20:47:59;100103.22;;;19.65
24714;BMP280;12820;51.580;5.010;2023-07-31T20:53:01;100080.28;;;19.65
24714;BMP280;12820;51.580;5.010;2023-07-31T20:58:06;100082.91;;;19.64
24714;BMP280;12820;51.580;5.010;2023-07-31T21:03:08;100074.47;;;19.63
24714;BMP280;12820;51.580;5.010;2023-07-31T21:08:12;100073.53;;;19.64
24714;BMP280;12820;51.580;5.010;2023-07-31T21:13:14;100061.75;;;19.63
24714;BMP280;12820;51.580;5.010;2023-07-31T21:18:16;100054.19;;;19.62
24714;BMP280;12820;51.580;5.010;2023-07-31T21:23:19;100048.16;;;19.63
24714;BMP280;12820;51.580;5.010;2023-07-31T21:28:21;100044.81;;;19.62
24714;BMP280;12820;51.580;5.010;2023-07-31T21:33:25;100026.97;;;19.62
24714;BMP280;12820;51.580;5.010;2023-07-31T21:38:27;100027.88;;;19.61
24714;BMP280;12820;51.580;5.010;2023-07-31T21:43:29;100036.41;;;19.60
24714;BMP280;12820;51.580;5.010;2023-07-31T21:48:31;100016.94;;;19.59
24714;BMP280;12820;51.580;5.010;2023-07-31T21:53:33;100007.69;;;19.58
24714;BMP280;12820;51.580;5.010;2023-07-31T21:58:36;100001.75;;;19.58
24714;BMP280;12820;51.580;5.010;2023-07-31T22:03:38;100004.31;;;19.58
24714;BMP280;12820;51.580;5.010;2023-07-31T22:08:41;99999.28;;;19.57
24714;BMP280;12820;51.580;5.010;2023-07-31T22:13:43;99989.09;;;19.57
24714;BMP280;12820;51.580;5.010;2023-07-31T22:18:45;99997.66;;;19.56
24714;BMP280;12820;51.580;5.010;2023-07-31T22:23:48;99979.00;;;19.55
24714;BMP280;12820;51.580;5.010;2023-07-31T22:28:50;99974.00;;;19.54
24714;BMP280;12820;51.580;5.010;2023-07-31T22:33:52;99961.25;;;19.54
24714;BMP280;12820;51.580;5.010;2023-07-31T22:38:55;99959.63;;;19.53
24714;BMP280;12820;51.580;5.010;2023-07-31T22:43:57;99965.59;;;19.52
24714;BMP280;12820;51.580;5.010;2023-07-31T22:49:00;99965.59;;;19.52
24714;BMP280;12820;51.580;5.010;2023-07-31T22:54:02;99977.50;;;19.51
24714;BMP280;12820;51.580;5.010;2023-07-31T22:59:04;99969.97;;;19.50
24714;BMP280;12820;51.580;5.010;2023-07-31T23:04:07;99967.41;;;19.50
24714;BMP280;12820;51.580;5.010;2023-07-31T23:09:09;99952.13;;;19.50
24714;BMP280;12820;51.580;5.010;2023-07-31T23:14:11;99939.38;;;19.50
24714;BMP280;12820;51.580;5.010;2023-07-31T23:19:13;99940.31;;;19.49
24714;BMP280;12820;51.580;5.010;2023-07-31T23:24:15;99925.94;;;19.48
24714;BMP280;12820;51.580;5.010;2023-07-31T23:29:18;99933.66;;;19.46
24714;BMP280;12820;51.580;5.010;2023-07-31T23:34:20;99931.31;;;19.43
24714;BMP280;12820;51.580;5.010;2023-07-31T23:39:22;99928.13;;;19.40
24714;BMP280;12820;51.580;5.010;2023-07-31T23:44:26;99932.44;;;19.39
24714;BMP280;12820;51.580;5.010;2023-07-31T23:49:28;99924.06;;;19.38
24714;BMP280;12820;51.580;5.010;2023-07-31T23:54:30;99908.75;;;19.38
24714;BMP280;12820;51.580;5.010;2023-07-31T23:59:32;99913.13;;;19.36
